Time;durP1;ratioP1;P1;durP2;ratioP2;P2;SDS_P1;SDS_P2;PMS_P1;PMS_P2;Temp;Humidity;BMP_temperature;BMP_pressure;BME280_temperature;BME280_humidity;BME280_pressure;Samples;Min_cycle;Max_cycle;Signal;HPM_P1;HPM_P2
2022/07/03 00:02:16;;;;;;;7.70;5.25;;;;;;;20.32;59.99;99599.91;4452468;32;34177;-86
2022/07/03 00:04:44;;;;;;;11.93;6.05;;;;;;;19.81;61.21;99603.06;4453100;32;33821;-80
2022/07/03 00:07:12;;;;;;;9.38;5.20;;;;;;;19.72;61.79;99606.09;4454866;32;35799;-86
2022/07/03 00:09:40;;;;;;;10.65;5.45;;;;;;;19.81;61.91;99611.00;4452132;32;35217;-85
2022/07/03 00:12:09;;;;;;;10.32;5.40;;;;;;;20.34;60.27;99608.62;4454781;32;33638;-81
2022/07/03 00:14:37;;;;;;;9.40;5.50;;;;;;;19.97;61.33;99612.97;4453976;32;34020;-86
2022/07/03 00:17:05;;;;;;;10.57;5.45;;;;;;;19.81;62.22;99605.72;4453611;32;35898;-80
2022/07/03 00:19:33;;;;;;;7.78;5.20;;;;;;;19.67;62.59;99608.06;4453834;32;34447;-86
2022/07/03 00:22:05;;;;;;;32.80;7.25;;;;;;;19.89;62.13;99603.59;4454768;32;33354;-81
2022/07/03 00:24:44;;;;;;;9.50;5.53;;;;;;;20.03;61.56;99596.81;4450672;32;32417;-86
2022/07/03 00:27:15;;;;;;;8.90;5.53;;;;;;;19.31;63.93;99592.91;4437533;32;34932;-86
2022/07/03 00:29:44;;;;;;;10.02;5.97;;;;;;;19.62;63.35;99594.22;4445905;32;35241;-87
2022/07/03 00:32:14;;;;;;;8.23;5.05;;;;;;;20.05;61.86;99597.63;4452569;32;33703;-84
2022/07/03 00:34:42;;;;;;;7.68;4.75;;;;;;;19.69;63.04;99593.00;4444179;32;33911;-86
2022/07/03 00:37:11;;;;;;;9.85;5.97;;;;;;;18.98;66.11;99593.38;4438783;32;34928;-86
2022/07/03 00:39:41;;;;;;;9.05;5.50;;;;;;;19.63;63.76;99595.94;4446504;32;35082;-80
2022/07/03 00:42:10;;;;;;;8.30;5.75;;;;;;;19.57;63.89;99602.34;4440807;32;33430;-86
2022/07/03 00:44:50;;;;;;;7.40;4.97;;;;;;;19.10;65.52;99602.59;4453424;32;33890;-80
2022/07/03 00:47:21;;;;;;;8.45;5.47;;;;;;;19.47;64.29;99599.25;4454596;32;36055;-86
2022/07/03 00:49:51;;;;;;;8.82;5.37;;;;;;;19.32;65.15;99607.81;4450838;32;34459;-83
2022/07/03 00:52:21;;;;;;;8.55;5.75;;;;;;;19.42;64.66;99601.22;4453442;32;32632;-80
2022/07/03 00:54:58;;;;;;;8.43;5.75;;;;;;;19.19;65.43;99594.28;4443661;32;33079;-86
2022/07/03 00:57:29;;;;;;;8.88;6.00;;;;;;;19.09;66.05;99590.31;4438984;32;35173;-86
2022/07/03 01:00:01;;;;;;;8.38;5.78;;;;;;;19.48;64.54;99582.47;4446643;32;34573;-83
2022/07/03 01:02:45;;;;;;;9.10;6.22;;;;;;;18.84;66.90;99590.47;4452052;32;33589;-81
2022/07/03 01:05:34;;;;;;;11.60;6.45;;;;;;;18.44;68.24;99589.37;4453483;32;33884;-85
2022/07/03 01:08:21;;;;;;;9.35;5.25;;;;;;;18.68;67.68;99584.91;4454192;32;35059;-85
2022/07/03 01:11:07;;;;;;;9.40;6.07;;;;;;;19.24;65.78;99583.53;4453417;32;35210;-80
2022/07/03 01:13:56;;;;;;;10.30;6.28;;;;;;;18.94;66.79;99575.97;4453556;32;33532;-84
2022/07/03 01:16:36;;;;;;;8.70;5.60;;;;;;;19.08;66.57;99578.03;4438614;32;33965;-81
2022/07/03 01:19:21;;;;;;;7.90;5.72;;;;;;;18.93;66.70;99583.00;4441142;32;35973;-80
2022/07/03 01:21:55;;;;;;;10.73;5.20;;;;;;;18.79;67.73;99587.13;4444397;32;35232;-85
2022/07/03 01:25:04;;;;;;;8.90;5.37;;;;;;;18.21;70.21;99579.72;4442889;32;33817;-85
2022/07/03 01:27:35;;;;;;;16.50;6.53;;;;;;;18.70;68.23;99575.16;4432053;32;34535;-85
2022/07/03 01:30:10;;;;;;;9.80;6.18;;;;;;;18.23;70.28;99578.75;4451386;32;35728;-84
2022/07/03 01:32:41;;;;;;;8.52;5.65;;;;;;;19.00;67.70;99573.06;4452606;32;34440;-84
2022/07/03 01:35:13;;;;;;;8.10;5.32;;;;;;;18.82;68.13;99571.19;4451360;32;33420;-80
2022/07/03 01:37:42;;;;;;;10.10;6.03;;;;;;;18.28;69.72;99579.44;4451084;32;33925;-84
2022/07/03 01:40:10;;;;;;;9.98;5.90;;;;;;;18.04;71.14;99573.31;4450967;32;36004;-84
2022/07/03 01:42:41;;;;;;;11.32;6.37;;;;;;;18.22;70.35;99574.41;4452632;32;34105;-85
2022/07/03 01:45:12;;;;;;;9.73;6.68;;;;;;;18.33;70.43;99564.28;4451249;32;33478;-84
2022/07/03 01:47:41;;;;;;;8.18;5.45;;;;;;;18.12;71.38;99560.69;4453650;32;34886;-80
2022/07/03 01:50:12;;;;;;;10.20;6.03;;;;;;;18.65;69.71;99564.78;4452654;32;35531;-86
2022/07/03 01:52:41;;;;;;;8.65;5.78;;;;;;;18.42;70.20;99564.84;4449670;32;33568;-81
2022/07/03 01:55:14;;;;;;;8.90;5.47;;;;;;;18.45;70.76;99567.37;4447530;32;34307;-84
2022/07/03 01:57:48;;;;;;;9.20;6.07;;;;;;;18.25;70.98;99561.09;4453292;32;33836;-85
2022/07/03 02:00:19;;;;;;;9.43;6.35;;;;;;;18.26;71.03;99564.59;4447991;32;35888;-85
2022/07/03 02:03:00;;;;;;;9.52;5.87;;;;;;;17.97;72.72;99569.22;4445946;32;35238;-86
2022/07/03 02:05:34;;;;;;;9.75;6.07;;;;;;;18.10;73.30;99566.97;4438409;32;33527;-86
2022/07/03 02:08:02;;;;;;;9.18;6.25;;;;;;;18.25;71.95;99566.37;4439809;32;34745;-85
2022/07/03 02:10:34;;;;;;;8.80;6.07;;;;;;;17.90;73.74;99563.31;4450300;32;35101;-84
2022/07/03 02:13:24;;;;;;;9.82;6.37;;;;;;;18.28;71.17;99570.66;4454453;32;35274;-85
2022/07/03 02:15:52;;;;;;;9.45;6.03;;;;;;;18.25;72.04;99566.37;4450162;32;34254;-85
2022/07/03 02:18:23;;;;;;;9.20;6.25;;;;;;;18.68;70.12;99567.31;4438813;32;34106;-85
2022/07/03 02:21:15;;;;;;;14.07;6.35;;;;;;;18.43;71.18;99571.84;4452676;32;34993;-84
2022/07/03 02:24:17;;;;;;;10.00;6.10;;;;;;;18.23;72.54;99578.75;4454429;32;34576;-83
2022/07/03 02:27:00;;;;;;;10.43;5.95;;;;;;;18.51;71.03;99567.13;4432324;32;33508;-80
2022/07/03 02:29:34;;;;;;;11.27;6.22;;;;;;;18.31;71.39;99568.75;4449761;32;34641;-85
2022/07/03 02:32:03;;;;;;;15.55;7.10;;;;;;;18.20;71.49;99565.69;4438723;32;35785;-84
2022/07/03 02:34:33;;;;;;;9.65;6.45;;;;;;;18.49;71.31;99574.22;4441426;32;34618;-86
2022/07/03 02:37:11;;;;;;;9.77;6.12;;;;;;;18.03;73.09;99574.22;4454330;32;33442;-80
2022/07/03 02:40:10;;;;;;;9.57;5.60;;;;;;;17.93;74.14;99571.09;4454402;32;34188;-84
2022/07/03 02:42:43;;;;;;;9.98;6.45;;;;;;;17.42;75.42;99577.31;4448605;32;36009;-85
2022/07/03 02:45:12;;;;;;;9.23;6.18;;;;;;;18.54;71.64;99574.91;4452746;32;34626;-85
2022/07/03 02:47:51;;;;;;;9.65;6.15;;;;;;;18.38;71.90;99572.03;4450640;32;33521;-84
2022/07/03 02:50:25;;;;;;;10.18;6.35;;;;;;;17.88;73.30;99583.56;4447234;32;34721;-81
2022/07/03 02:53:04;;;;;;;10.48;6.57;;;;;;;16.91;77.80;99576.38;4455561;32;35980;-84
2022/07/03 02:55:42;;;;;;;9.63;6.35;;;;;;;17.91;73.88;99575.56;4453557;32;34554;-84
2022/07/03 02:58:33;;;;;;;9.25;5.60;;;;;;;18.14;73.59;99577.34;4438165;32;33500;-86
2022/07/03 03:01:20;;;;;;;9.77;6.50;;;;;;;18.48;71.09;99570.75;4451911;32;33982;-82
2022/07/03 03:04:08;;;;;;;10.93;6.47;;;;;;;18.27;71.56;99572.44;4441464;32;34395;-85
2022/07/03 03:06:37;;;;;;;12.20;6.40;;;;;;;17.69;74.92;99572.81;4454195;32;35222;-84
2022/07/03 03:09:08;;;;;;;11.07;6.80;;;;;;;18.26;72.96;99577.78;4440724;32;32812;-80
2022/07/03 03:11:43;;;;;;;9.07;5.60;;;;;;;17.98;73.85;99579.69;4438962;32;34977;-84
2022/07/03 03:14:13;;;;;;;10.48;6.53;;;;;;;17.35;77.20;99588.97;4452218;32;35923;-80
2022/07/03 03:17:07;;;;;;;8.68;6.28;;;;;;;17.88;74.88;99583.56;4455214;32;35166;-80
2022/07/03 03:19:41;;;;;;;11.98;6.82;;;;;;;17.79;75.17;99573.34;4450144;32;33390;-84
2022/07/03 03:22:16;;;;;;;8.75;5.82;;;;;;;18.33;73.75;99566.91;4454053;32;33898;-82
2022/07/03 03:24:44;;;;;;;9.90;6.10;;;;;;;18.70;71.58;99568.09;4449087;32;35764;-84
2022/07/03 03:27:12;;;;;;;9.27;6.18;;;;;;;18.62;71.57;99571.97;4438382;32;34587;-81
2022/07/03 03:29:40;;;;;;;10.40;6.80;;;;;;;18.59;72.55;99569.47;4441762;32;33436;-81
2022/07/03 03:32:10;;;;;;;9.02;6.12;;;;;;;18.53;72.81;99557.34;4453587;32;33839;-85
2022/07/03 03:34:39;;;;;;;12.50;7.53;;;;;;;18.65;72.37;99570.06;4442549;32;35125;-85
2022/07/03 03:37:07;;;;;;;10.27;6.68;;;;;;;18.37;73.46;99571.19;4456707;32;35159;-85
2022/07/03 03:39:35;;;;;;;11.85;5.87;;;;;;;18.29;74.11;99572.38;4454972;32;33390;-84
2022/07/03 03:42:04;;;;;;;14.05;6.30;;;;;;;18.26;75.00;99560.16;4456715;32;34618;-85
2022/07/03 03:44:32;;;;;;;9.98;6.32;;;;;;;18.58;73.57;99558.03;4467709;32;35743;-85
2022/07/03 03:47:01;;;;;;;10.05;6.32;;;;;;;19.01;71.15;99556.31;4456627;32;34449;-82
2022/07/03 03:49:29;;;;;;;9.35;5.85;;;;;;;19.48;69.80;99549.91;4469063;32;33563;-85
2022/07/03 03:51:57;;;;;;;14.38;6.65;;;;;;;19.34;71.49;99558.44;4455255;32;33894;-80
2022/07/03 03:54:25;;;;;;;9.25;6.25;;;;;;;18.78;74.08;99565.16;4439450;32;35090;-85
2022/07/03 03:56:53;;;;;;;15.68;6.43;;;;;;;18.78;75.13;99575.72;4470379;32;34292;-84
2022/07/03 03:59:21;;;;;;;11.12;6.32;;;;;;;19.60;72.12;99580.22;4469363;32;33802;-81
2022/07/03 04:01:49;;;;;;;10.90;7.20;;;;;;;18.38;75.65;99578.16;4453753;32;35012;-81
2022/07/03 04:04:18;;;;;;;10.57;6.85;;;;;;;19.73;70.83;99578.75;4454962;32;35062;-86
2022/07/03 04:06:46;;;;;;;13.80;7.32;;;;;;;19.60;71.74;99580.22;4469955;32;34712;-85
2022/07/03 04:09:14;;;;;;;11.55;6.55;;;;;;;18.80;76.08;99583.56;4470357;32;34194;-83
2022/07/03 04:11:42;;;;;;;11.93;6.60;;;;;;;18.42;77.93;99581.53;4451360;32;33477;-80
2022/07/03 04:14:10;;;;;;;10.85;6.40;;;;;;;19.05;75.27;99591.38;4428127;32;35775;-86
2022/07/03 04:16:38;;;;;;;10.38;6.62;;;;;;;19.31;73.12;99592.91;4468288;32;35195;-86
2022/07/03 04:19:06;;;;;;;10.57;5.95;;;;;;;19.07;74.94;99587.72;4456402;32;33395;-86
2022/07/03 04:21:34;;;;;;;12.88;7.00;;;;;;;19.24;74.92;99586.19;4454864;32;34735;-81
2022/07/03 04:24:02;;;;;;;18.30;7.00;;;;;;;20.01;71.67;99577.53;4470313;32;35977;-85
2022/07/03 04:26:30;;;;;;;18.75;6.75;;;;;;;20.82;67.37;99575.47;4467390;32;34310;-80
2022/07/03 04:28:58;;;;;;;13.18;6.07;;;;;;;21.18;67.07;99577.25;4454074;32;33365;-86
2022/07/03 04:31:26;;;;;;;10.20;7.22;;;;;;;20.76;68.93;99566.06;4453776;32;33991;-81
2022/07/03 04:33:54;;;;;;;12.65;7.62;;;;;;;20.93;68.00;99567.88;4441983;32;35958;-81
2022/07/03 04:36:22;;;;;;;11.90;5.97;;;;;;;21.07;68.26;99566.31;4437358;32;32622;-80
2022/07/03 04:38:50;;;;;;;9.95;6.07;;;;;;;21.59;66.18;99574.25;4439226;32;33196;-86
2022/07/03 04:41:18;;;;;;;9.50;6.05;;;;;;;21.72;65.51;99564.72;4450023;32;33840;-86
2022/07/03 04:43:46;;;;;;;10.68;6.95;;;;;;;22.89;61.08;99558.28;4453344;32;35101;-85
2022/07/03 04:46:13;;;;;;;9.25;6.30;;;;;;;22.26;62.33;99558.31;4453587;32;35332;-85
2022/07/03 04:48:42;;;;;;;9.70;6.00;;;;;;;22.63;61.90;99562.44;4451311;32;33602;-83
2022/07/03 04:51:10;;;;;;;9.20;6.05;;;;;;;23.35;59.70;99559.16;4452174;32;33873;-85
2022/07/03 04:53:38;;;;;;;10.18;6.20;;;;;;;23.43;58.68;99562.22;4453301;32;34960;-80
2022/07/03 04:56:06;;;;;;;9.32;5.53;;;;;;;23.16;58.81;99554.13;4439648;32;34694;-85
2022/07/03 04:58:34;;;;;;;10.38;6.18;;;;;;;23.04;60.66;99555.66;4453298;32;33510;-81
2022/07/03 05:01:01;;;;;;;9.18;6.15;;;;;;;23.66;58.36;99553.72;4453273;32;34016;-83
2022/07/03 05:03:30;;;;;;;8.60;5.90;;;;;;;23.69;58.40;99551.81;4453198;32;34909;-85
2022/07/03 05:05:58;;;;;;;9.93;5.85;;;;;;;24.74;53.77;99552.25;4438754;32;34585;-85
2022/07/03 05:08:26;;;;;;;8.88;6.12;;;;;;;24.29;56.26;99545.41;4449333;32;34209;-83
2022/07/03 05:10:54;;;;;;;10.27;5.65;;;;;;;24.22;56.48;99552.94;4453312;32;33822;-81
2022/07/03 05:13:22;;;;;;;9.52;5.45;;;;;;;24.19;56.88;99542.47;4454266;32;35128;-81
2022/07/03 05:15:49;;;;;;;10.25;5.80;;;;;;;24.31;56.26;99544.34;4451504;32;34405;-85
2022/07/03 05:18:18;;;;;;;9.45;5.60;;;;;;;24.12;57.14;99543.81;4454185;32;34066;-84
2022/07/03 05:20:48;;;;;;;10.25;5.50;;;;;;;24.65;56.14;99542.19;4453190;32;33008;-84
2022/07/03 05:23:16;;;;;;;8.55;5.82;;;;;;;25.26;54.26;99542.56;4453071;32;35056;-83
2022/07/03 05:25:45;;;;;;;12.00;6.07;;;;;;;25.46;54.89;99535.00;4454600;32;35196;-84
2022/07/03 05:28:13;;;;;;;10.82;5.90;;;;;;;25.13;54.08;99541.66;4455854;32;33563;-85
2022/07/03 05:30:40;;;;;;;12.05;6.20;;;;;;;25.14;54.48;99544.22;4453233;32;34032;-85
2022/07/03 05:33:08;;;;;;;7.80;5.30;;;;;;;26.19;50.06;99544.97;4455829;32;35094;-80
2022/07/03 05:35:36;;;;;;;10.25;6.03;;;;;;;26.10;52.20;99545.63;4454596;32;34419;-86
2022/07/03 05:38:04;;;;;;;9.18;5.65;;;;;;;26.19;51.60;99542.31;4455916;32;34396;-81
2022/07/03 05:40:32;;;;;;;11.27;5.72;;;;;;;26.78;49.92;99538.88;4453309;32;33925;-82
2022/07/03 05:43:00;;;;;;;12.77;6.32;;;;;;;25.44;52.98;99548.44;4454858;32;35996;-85
2022/07/03 05:45:28;;;;;;;8.85;6.05;;;;;;;26.53;50.52;99549.69;4454807;32;34557;-84
2022/07/03 05:47:56;;;;;;;10.88;6.05;;;;;;;26.66;50.56;99554.00;4454701;32;33454;-80
2022/07/03 05:50:24;;;;;;;7.70;5.55;;;;;;;25.41;53.23;99556.66;4454713;32;33933;-81
2022/07/03 05:52:52;;;;;;;9.10;5.70;;;;;;;25.54;53.47;99557.50;4451767;32;35249;-84
2022/07/03 05:55:20;;;;;;;8.52;6.05;;;;;;;26.48;52.14;99555.34;4454734;32;35310;-85
2022/07/03 05:57:48;;;;;;;11.12;5.62;;;;;;;26.73;49.83;99557.06;4454507;32;32590;-86
2022/07/03 06:00:16;;;;;;;10.85;5.70;;;;;;;27.51;48.86;99557.47;4453742;32;33904;-85
2022/07/03 06:02:44;;;;;;;8.95;6.03;;;;;;;26.92;50.17;99556.56;4440033;32;34982;-84
2022/07/03 06:05:12;;;;;;;6.93;4.75;;;;;;;28.03;46.93;99553.38;4441384;32;35314;-85
2022/07/03 06:07:39;;;;;;;7.80;5.65;;;;;;;27.36;49.12;99557.69;4455755;32;33447;-85
2022/07/03 06:10:08;;;;;;;9.00;6.03;;;;;;;27.36;47.26;99563.03;4440808;32;33950;-85
2022/07/03 06:12:36;;;;;;;9.55;5.70;;;;;;;27.72;47.44;99563.81;4455627;32;35789;-85
2022/07/03 06:15:04;;;;;;;8.60;5.45;;;;;;;27.67;47.91;99570.50;4454563;32;34669;-82
2022/07/03 06:17:35;;;;;;;8.40;5.55;;;;;;;28.02;47.44;99573.09;4455737;32;33439;-82
2022/07/03 06:20:04;;;;;;;6.82;4.82;;;;;;;28.29;46.98;99575.38;4442299;32;33915;-81
2022/07/03 06:22:33;;;;;;;9.48;5.60;;;;;;;28.78;44.98;99575.88;4439031;32;35192;-81
2022/07/03 06:25:01;;;;;;;7.43;5.07;;;;;;;29.57;40.92;99586.25;4446084;32;34303;-81
2022/07/03 06:27:28;;;;;;;7.72;5.03;;;;;;;28.66;44.71;99571.53;4440814;32;34550;-81
2022/07/03 06:29:57;;;;;;;8.68;5.60;;;;;;;29.35;43.88;99575.66;4443027;32;34074;-84
2022/07/03 06:32:25;;;;;;;10.50;5.45;;;;;;;28.47;43.75;99569.50;4455017;32;35564;-81
2022/07/03 06:34:53;;;;;;;8.63;5.20;;;;;;;30.17;39.91;99569.44;4450064;32;35307;-84
2022/07/03 06:37:21;;;;;;;7.43;4.78;;;;;;;29.03;43.43;99569.34;4455450;32;32230;-83
2022/07/03 06:39:49;;;;;;;10.18;5.50;;;;;;;28.41;43.79;99565.47;4454993;32;33468;-80
2022/07/03 06:42:17;;;;;;;8.10;4.65;;;;;;;29.95;39.94;99560.63;4469140;32;35133;-86
2022/07/03 06:44:46;;;;;;;7.55;5.40;;;;;;;29.17;43.06;99565.50;4470972;32;35092;-84
2022/07/03 06:47:19;;;;;;;7.25;5.07;;;;;;;30.10;41.72;99568.28;4456555;32;34230;-85
2022/07/03 06:49:47;;;;;;;7.68;5.35;;;;;;;30.18;40.71;99560.41;4455585;32;34008;-84
2022/07/03 06:52:15;;;;;;;8.40;4.62;;;;;;;30.89;39.09;99565.63;4461337;32;35277;-84
2022/07/03 06:54:43;;;;;;;9.00;5.18;;;;;;;30.67;38.58;99555.97;4468580;32;34525;-82
2022/07/03 06:57:12;;;;;;;6.07;4.70;;;;;;;29.15;41.50;99562.09;4453715;32;34358;-85
2022/07/03 06:59:41;;;;;;;7.78;5.47;;;;;;;29.93;40.14;99570.66;4441382;32;34773;-85
2022/07/03 07:02:10;;;;;;;7.20;4.97;;;;;;;30.42;38.24;99554.69;4467393;32;35970;-85
2022/07/03 07:04:38;;;;;;;9.45;5.30;;;;;;;30.02;41.16;99559.09;4456828;32;35316;-81
2022/07/03 07:07:06;;;;;;;9.45;4.87;;;;;;;30.36;39.60;99558.78;4469177;32;33568;-84
2022/07/03 07:09:34;;;;;;;6.53;4.65;;;;;;;30.71;39.59;99546.66;4470838;32;34003;-81
2022/07/03 07:12:02;;;;;;;8.38;4.82;;;;;;;30.67;38.87;99550.59;4457158;32;35775;-85
2022/07/03 07:14:30;;;;;;;7.93;5.57;;;;;;;30.77;40.83;99547.94;4454505;32;34467;-84
2022/07/03 07:16:57;;;;;;;7.00;5.32;;;;;;;31.43;36.95;99552.59;4465725;32;33509;-86
2022/07/03 07:19:26;;;;;;;8.05;5.22;;;;;;;30.92;38.79;99548.34;4456765;32;34201;-82
2022/07/03 07:21:53;;;;;;;6.62;4.75;;;;;;;31.04;39.08;99552.63;4469422;32;35834;-83
2022/07/03 07:24:21;;;;;;;7.65;4.90;;;;;;;30.46;40.90;99552.56;4456732;32;35020;-86
2022/07/03 07:26:49;;;;;;;9.18;5.47;;;;;;;30.87;39.79;99562.25;4455500;32;32828;-85
2022/07/03 07:29:17;;;;;;;7.18;4.93;;;;;;;30.57;40.38;99556.00;4460086;32;33900;-84
2022/07/03 07:31:45;;;;;;;7.62;5.30;;;;;;;30.39;39.77;99553.13;4449806;32;34946;-84
2022/07/03 07:34:14;;;;;;;9.18;5.28;;;;;;;30.07;41.99;99553.28;4465327;32;35468;-81
2022/07/03 07:36:42;;;;;;;9.25;4.95;;;;;;;31.02;38.51;99556.47;4462992;32;33586;-84
2022/07/03 07:39:09;;;;;;;8.77;5.12;;;;;;;31.34;38.58;99553.44;4470670;32;34065;-85
2022/07/03 07:41:38;;;;;;;7.62;5.45;;;;;;;31.18;38.11;99554.91;4469159;32;36002;-85
2022/07/03 07:44:06;;;;;;;9.18;5.57;;;;;;;31.40;38.25;99550.16;4467697;32;34414;-80
2022/07/03 07:46:34;;;;;;;8.48;4.32;;;;;;;31.33;37.70;99552.59;4458627;32;33455;-82
2022/07/03 07:49:02;;;;;;;6.87;5.03;;;;;;;31.37;38.83;99553.97;4470414;32;33939;-85
2022/07/03 07:51:30;;;;;;;6.68;4.65;;;;;;;31.83;37.05;99553.31;4468976;32;34909;-86
2022/07/03 07:53:59;;;;;;;10.40;5.03;;;;;;;31.53;37.94;99553.41;4461338;32;34475;-84
2022/07/03 07:56:27;;;;;;;7.20;5.15;;;;;;;31.82;38.27;99557.00;4461044;32;34212;-84
2022/07/03 07:58:55;;;;;;;7.72;5.32;;;;;;;31.35;38.17;99571.28;4470727;32;34720;-81
2022/07/03 08:06:56;;;;;;;10.63;4.80;;;;;;;32.06;35.63;99564.59;4457201;32;33444;-83
2022/07/03 08:09:24;;;;;;;9.98;5.18;;;;;;;31.47;39.86;99564.75;4456680;32;34162;-82
2022/07/03 08:11:52;;;;;;;7.00;5.20;;;;;;;31.66;37.51;99563.00;4454964;32;35983;-85
2022/07/03 08:14:19;;;;;;;8.30;5.55;;;;;;;31.66;36.92;99563.00;4470676;32;35232;-85
2022/07/03 08:16:48;;;;;;;7.60;5.47;;;;;;;31.86;36.33;99567.34;4469236;32;33557;-84
2022/07/03 08:19:17;;;;;;;7.62;4.97;;;;;;;31.59;37.04;99572.66;4456503;32;34008;-83
2022/07/03 08:21:44;;;;;;;7.00;5.10;;;;;;;31.74;36.42;99560.44;4468856;32;35888;-82
2022/07/03 08:24:12;;;;;;;6.43;5.15;;;;;;;31.28;39.38;99564.78;4456154;32;34528;-84
2022/07/03 08:26:40;;;;;;;6.93;4.72;;;;;;;31.89;38.06;99569.75;4469433;32;34311;-84
2022/07/03 08:29:09;;;;;;;7.90;4.87;;;;;;;32.80;35.43;99565.41;4449039;32;168162;-85
2022/07/03 08:31:37;;;;;;;6.85;4.80;;;;;;;32.66;35.89;99564.94;4455093;32;36050;-84
2022/07/03 08:34:05;;;;;;;15.80;5.12;;;;;;;31.64;36.71;99563.16;4470166;32;35210;-82
2022/07/03 08:36:33;;;;;;;7.28;5.05;;;;;;;32.98;33.47;99555.44;4468682;32;33461;-84
2022/07/03 08:39:01;;;;;;;6.47;4.85;;;;;;;32.87;34.41;99563.78;4470268;32;34716;-84
2022/07/03 08:41:30;;;;;;;10.07;5.22;;;;;;;33.31;33.63;99561.16;4454704;32;35821;-83
2022/07/03 08:43:59;;;;;;;6.43;4.70;;;;;;;33.05;34.04;99561.06;4456170;32;34346;-83
2022/07/03 08:46:27;;;;;;;7.32;5.22;;;;;;;33.94;33.25;99561.91;4461951;32;33518;-85
2022/07/03 08:48:55;;;;;;;8.57;4.65;;;;;;;33.10;34.19;99557.94;4465171;32;33822;-84
2022/07/03 08:51:24;;;;;;;6.20;4.30;;;;;;;34.22;33.38;99558.97;4449925;32;35007;-83
2022/07/03 08:53:59;;;;;;;8.02;4.50;;;;;;;34.58;32.34;99564.16;4440581;32;35163;-84
2022/07/03 08:56:27;;;;;;;9.15;4.50;;;;;;;34.70;31.52;99562.84;4458953;32;34392;-82
2022/07/03 08:58:58;;;;;;;6.50;4.43;;;;;;;35.13;32.47;99558.97;4469687;32;34866;-84
2022/07/03 09:01:26;;;;;;;6.60;4.10;;;;;;;34.76;30.56;99551.34;4454769;32;35868;-81
2022/07/03 09:03:54;;;;;;;7.03;4.80;;;;;;;34.48;29.22;99558.87;4466419;32;35280;-81
2022/07/03 09:06:23;;;;;;;5.97;4.07;;;;;;;34.00;30.90;99550.44;4454910;32;34233;-86
2022/07/03 09:08:51;;;;;;;7.70;4.30;;;;;;;33.90;31.17;99549.69;4455834;32;34005;-81
2022/07/03 09:11:19;;;;;;;5.82;4.22;;;;;;;33.49;30.88;99550.28;4452204;32;35863;-84
2022/07/03 09:13:47;;;;;;;5.80;4.18;;;;;;;34.37;28.18;99543.81;4454206;32;35212;-85
2022/07/03 09:16:21;;;;;;;8.00;4.45;;;;;;;34.87;27.34;99539.34;4453448;32;34299;-81
2022/07/03 09:18:50;;;;;;;6.60;4.53;;;;;;;34.57;28.61;99536.25;4454073;32;34020;-81
2022/07/03 09:21:18;;;;;;;8.48;4.53;;;;;;;33.37;31.48;99533.53;4456204;32;35170;-85
2022/07/03 09:23:47;;;;;;;7.28;4.62;;;;;;;34.82;31.34;99529.06;4469903;32;34400;-81
2022/07/03 09:26:17;;;;;;;8.98;4.32;;;;;;;36.02;29.04;99536.44;4468020;32;33688;-81
2022/07/03 09:28:51;;;;;;;6.80;4.05;;;;;;;33.60;32.69;99532.97;4455664;32;33952;-81
2022/07/03 09:31:22;;;;;;;7.05;4.90;;;;;;;35.02;28.72;99526.84;4454389;32;35115;-85
2022/07/03 09:33:50;;;;;;;11.80;4.35;;;;;;;35.35;29.02;99523.25;4469605;32;34519;-84
2022/07/03 09:36:17;;;;;;;5.25;4.07;;;;;;;34.65;30.96;99520.03;4468048;32;34274;-85
2022/07/03 09:38:46;;;;;;;4.82;3.80;;;;;;;35.10;31.28;99520.56;4455564;32;34610;-82
2022/07/03 09:41:13;;;;;;;5.75;4.30;;;;;;;35.94;27.32;99518.38;4457615;32;35133;-85
2022/07/03 09:43:43;;;;;;;6.62;4.12;;;;;;;35.01;29.43;99511.59;4455293;32;34100;-85
2022/07/03 09:46:11;;;;;;;6.50;4.60;;;;;;;34.73;29.80;99511.09;4467870;32;34483;-85
2022/07/03 09:48:41;;;;;;;7.35;4.90;;;;;;;34.68;30.87;99508.03;4455431;32;33844;-84
2022/07/03 09:51:26;;;;;;;10.85;4.07;;;;;;;35.00;30.94;99507.22;4466237;32;35006;-81
2022/07/03 09:53:59;;;;;;;8.23;4.03;;;;;;;36.08;27.77;99503.22;4455767;32;35054;-81
2022/07/03 09:56:35;;;;;;;8.65;4.45;;;;;;;36.66;28.09;99500.16;4467755;32;33398;-83
2022/07/03 09:59:14;;;;;;;8.88;4.40;;;;;;;36.09;28.27;99504.91;4463553;32;34024;-85
2022/07/03 10:01:44;;;;;;;9.38;4.80;;;;;;;36.41;27.61;99506.63;4457371;32;35005;-81
2022/07/03 10:04:22;;;;;;;6.32;3.97;;;;;;;34.28;30.99;99504.28;4469097;32;34338;-86
2022/07/03 10:06:56;;;;;;;6.97;3.75;;;;;;;33.95;29.64;99493.31;4464074;32;34313;-82
2022/07/03 10:09:29;;;;;;;6.03;3.90;;;;;;;34.92;30.42;99486.41;4453486;32;33968;-81
2022/07/03 10:11:57;;;;;;;6.05;3.92;;;;;;;36.35;27.66;99488.34;4449541;32;35830;-81
2022/07/03 10:14:30;;;;;;;4.87;3.40;;;;;;;36.48;28.29;99487.75;4455711;32;34580;-81
2022/07/03 10:17:00;;;;;;;6.68;3.70;;;;;;;34.47;29.20;99482.34;4460754;32;33302;-83
2022/07/03 10:19:30;;;;;;;6.93;3.78;;;;;;;35.71;28.89;99482.25;4471212;32;34005;-84
2022/07/03 10:22:02;;;;;;;6.40;3.78;;;;;;;36.73;28.31;99479.47;4469673;32;35900;-84
2022/07/03 10:24:31;;;;;;;8.73;3.75;;;;;;;36.26;27.61;99475.87;4456052;32;34489;-85
2022/07/03 10:26:59;;;;;;;5.90;3.60;;;;;;;36.66;26.59;99473.00;4469530;32;33442;-84
2022/07/03 10:29:28;;;;;;;5.15;3.42;;;;;;;36.99;27.09;99473.59;4466893;32;33824;-80
2022/07/03 10:31:57;;;;;;;6.55;3.55;;;;;;;36.98;26.33;99471.94;4453305;32;35850;-80
2022/07/03 10:34:27;;;;;;;4.72;3.20;;;;;;;37.31;25.73;99479.75;4455407;32;33998;-82
2022/07/03 10:37:01;;;;;;;6.07;3.45;;;;;;;37.13;26.31;99475.50;4459581;32;33755;-80
2022/07/03 10:39:44;;;;;;;10.57;3.40;;;;;;;37.23;25.32;99479.84;4471031;32;33862;-85
2022/07/03 10:45:09;;;;;;;7.32;3.25;;;;;;;36.60;26.98;99461.03;4459251;32;34638;-80
2022/07/03 10:47:43;;;;;;;5.00;3.53;;;;;;;36.18;27.45;99465.03;4458364;32;33469;-84
2022/07/03 10:50:20;;;;;;;4.15;2.90;;;;;;;36.76;26.44;99460.06;4455828;32;34445;-85
2022/07/03 10:52:49;;;;;;;7.10;3.70;;;;;;;37.32;25.12;99448.84;4464938;32;35837;-86
2022/07/03 10:55:18;;;;;;;4.30;2.75;;;;;;;37.03;26.96;99458.66;4470985;32;35131;-84
2022/07/03 10:58:09;;;;;;;4.90;3.33;;;;;;;37.26;25.66;99468.63;4437473;32;33412;-83
2022/07/03 11:00:56;;;;;;;5.10;3.45;;;;;;;37.16;26.90;99464.28;4449535;32;33840;-80
2022/07/03 11:03:56;;;;;;;9.15;3.78;;;;;;;37.02;25.96;99456.94;4455102;32;35284;-81
2022/07/03 11:06:57;;;;;;;4.68;3.28;;;;;;;36.78;27.64;99455.31;4469677;32;34482;-82
2022/07/03 11:09:26;;;;;;;4.15;2.97;;;;;;;36.93;26.39;99447.22;4436347;32;34374;-83
2022/07/03 11:11:59;;;;;;;6.57;3.50;;;;;;;36.59;26.86;99446.63;4465433;32;34089;-81
2022/07/03 11:14:29;;;;;;;6.25;3.78;;;;;;;36.73;27.72;99450.44;4455296;32;35185;-83
2022/07/03 11:17:20;;;;;;;6.20;3.45;;;;;;;36.28;27.23;99443.97;4455540;32;34654;-84
2022/07/03 11:23:08;;;;;;;7.50;3.75;;;;;;;35.97;29.43;99450.28;4467983;32;33926;-80
2022/07/03 11:25:44;;;;;;;7.22;4.10;;;;;;;35.47;28.05;99446.06;4431893;32;34907;-84
2022/07/03 11:28:33;;;;;;;7.12;3.70;;;;;;;36.38;27.76;99439.16;4469156;32;34441;-84
2022/07/03 11:31:13;;;;;;;5.78;3.40;;;;;;;36.09;27.42;99434.41;4470864;32;33600;-80
2022/07/03 11:33:42;;;;;;;4.60;3.28;;;;;;;36.84;26.50;99434.75;4469583;32;33087;-86
2022/07/03 11:36:16;;;;;;;5.87;3.60;;;;;;;35.81;27.95;99425.94;4470410;32;35962;-85
2022/07/03 11:39:00;;;;;;;9.70;3.40;;;;;;;36.08;29.26;99423.78;4469720;32;33914;-81
2022/07/03 11:41:43;;;;;;;4.82;3.33;;;;;;;36.29;27.40;99420.44;4469118;32;33533;-84
2022/07/03 11:44:17;;;;;;;5.22;3.00;;;;;;;37.10;27.64;99421.56;4467403;32;34889;-85
2022/07/03 11:46:48;;;;;;;4.03;2.90;;;;;;;37.61;26.10;99411.81;4455310;32;35057;-81
2022/07/03 11:49:21;;;;;;;4.93;3.03;;;;;;;36.89;26.25;99414.16;4470634;32;34447;-81
2022/07/03 11:52:03;;;;;;;7.05;3.35;;;;;;;37.38;25.69;99404.66;4469603;32;34249;-85
2022/07/03 11:54:33;;;;;;;5.68;3.03;;;;;;;36.46;27.85;99400.28;4462478;32;34688;-83
2022/07/03 11:57:01;;;;;;;5.00;3.03;;;;;;;36.73;26.39;99392.63;4451698;32;34611;-84
2022/07/03 11:59:29;;;;;;;6.15;3.40;;;;;;;36.92;26.61;99396.66;4441073;32;35288;-84
2022/07/03 12:02:02;;;;;;;16.33;3.85;;;;;;;35.81;26.66;99399.72;4456401;32;33438;-81
2022/07/03 12:04:32;;;;;;;4.68;3.12;;;;;;;36.95;26.40;99394.41;4470569;32;33809;-85